Chautauqua, Illinois
Current Conditions -  °F | °C
As of 2:54 PM on Monday 22 Dec 2014 (Local Time) from KSET Reporting Station
Light Rain Light Rain  
Wind Chill: 45°   Ceiling: 800
Heat Index: 47°   Visibility: 3mi
Dew Point: 46°   Wind: 5mph
Humidity: 97%   Direction: 90°E
Pressure: 29.56"   Gusts: NA
Location:  38.9749°N, 90.3301°W
Report Text: KSET 222054Z AUTO 09004KT 3SM -RA BR OVC008 08/08 A2956 RMK AO2 SLP010 P0004 60007 T00830078 56031
Loading
Personal Weather Stations






























Interactive Weather Map New forecast layout! Learn more

10-Day Weather Forecast

Advertisements
Track Severe Weather on mobile